Time;durP1;ratioP1;P1;durP2;ratioP2;P2;SDS_P1;SDS_P2;PMS_P1;PMS_P2;Temp;Humidity;BMP_temperature;BMP_pressure;BME280_temperature;BME280_humidity;BME280_pressure;Samples;Min_cycle;Max_cycle;Signal;HPM_P1;HPM_P2
2024/01/06 00:01:04;;;;;;;28.20;19.90;;;;;;;;;;4988624;28;25094;-70
2024/01/06 00:03:31;;;;;;;27.92;19.58;;;;;;;;;;4978985;28;25082;-71
2024/01/06 00:05:59;;;;;;;26.85;19.42;;;;;;;;;;4991156;28;25072;-69
2024/01/06 00:08:25;;;;;;;29.52;20.83;;;;;;;;;;4992607;28;25137;-68
2024/01/06 00:10:51;;;;;;;24.50;18.15;;;;;;;;;;5001947;28;25097;-71
2024/01/06 00:13:17;;;;;;;26.02;18.98;;;;;;;;;;4998114;28;25045;-68
2024/01/06 00:15:43;;;;;;;24.83;17.55;;;;;;;;;;5002177;28;25078;-71
2024/01/06 00:18:09;;;;;;;26.13;18.90;;;;;;;;;;5001392;28;25072;-70
2024/01/06 00:20:35;;;;;;;25.30;17.38;;;;;;;;;;4989630;28;25089;-69
2024/01/06 00:23:01;;;;;;;24.23;17.38;;;;;;;;;;5004764;28;25082;-71
2024/01/06 00:25:27;;;;;;;25.33;17.95;;;;;;;;;;4996042;28;25070;-69
2024/01/06 00:27:53;;;;;;;23.88;16.98;;;;;;;;;;4993089;28;25146;-70
2024/01/06 00:30:19;;;;;;;27.10;17.52;;;;;;;;;;5027857;28;25128;-70
2024/01/06 00:32:45;;;;;;;25.88;17.25;;;;;;;;;;4998264;28;25085;-69
2024/01/06 00:35:11;;;;;;;27.30;17.55;;;;;;;;;;4999580;28;25109;-71
2024/01/06 00:37:37;;;;;;;25.02;17.02;;;;;;;;;;4993509;28;25131;-69
2024/01/06 00:40:04;;;;;;;20.52;16.92;;;;;;;;;;4994541;28;25103;-71
2024/01/06 00:42:30;;;;;;;25.27;17.38;;;;;;;;;;4996199;28;25076;-69
2024/01/06 00:44:56;;;;;;;21.98;16.52;;;;;;;;;;4993862;28;25085;-72
2024/01/06 00:47:24;;;;;;;22.70;15.13;;;;;;;;;;4994438;28;25063;-69
2024/01/06 00:49:50;;;;;;;23.52;15.18;;;;;;;;;;4989506;28;25062;-72
2024/01/06 00:52:16;;;;;;;19.55;14.95;;;;;;;;;;4988614;28;25146;-70
2024/01/06 00:54:42;;;;;;;19.27;15.00;;;;;;;;;;4992985;28;25069;-70
2024/01/06 00:57:08;;;;;;;20.50;15.48;;;;;;;;;;4996189;28;25087;-71
2024/01/06 00:59:34;;;;;;;19.30;14.52;;;;;;;;;;4988700;28;25052;-72
2024/01/06 01:02:00;;;;;;;17.15;13.60;;;;;;;;;;5001817;28;25088;-69
2024/01/06 01:04:26;;;;;;;18.48;13.60;;;;;;;;;;4995547;28;25055;-70
2024/01/06 01:06:52;;;;;;;17.13;14.13;;;;;;;;;;4995806;28;25136;-68
2024/01/06 01:09:18;;;;;;;17.85;13.13;;;;;;;;;;4990558;28;25108;-69
2024/01/06 01:11:44;;;;;;;19.58;12.88;;;;;;;;;;5003709;28;25068;-70
2024/01/06 01:14:10;;;;;;;13.65;10.35;;;;;;;;;;4997156;28;25075;-68
2024/01/06 01:16:36;;;;;;;15.70;10.80;;;;;;;;;;4999359;28;25060;-70
2024/01/06 01:19:02;;;;;;;12.90;9.18;;;;;;;;;;4997516;28;25088;-69
2024/01/06 01:21:28;;;;;;;9.65;8.10;;;;;;;;;;4999104;28;25074;-69
2024/01/06 01:23:54;;;;;;;14.65;9.32;;;;;;;;;;4991196;28;25097;-69
2024/01/06 01:26:20;;;;;;;11.60;9.85;;;;;;;;;;4995631;28;25046;-68
2024/01/06 01:28:46;;;;;;;18.70;10.95;;;;;;;;;;4999884;28;25101;-69
2024/01/06 01:31:13;;;;;;;12.73;9.63;;;;;;;;;;5003787;28;25054;-68
2024/01/06 01:33:40;;;;;;;13.55;9.60;;;;;;;;;;4999846;28;25094;-70
2024/01/06 01:36:06;;;;;;;10.35;8.95;;;;;;;;;;4998324;28;25115;-70
2024/01/06 01:38:32;;;;;;;13.30;8.50;;;;;;;;;;5005754;28;25072;-71
2024/01/06 01:40:59;;;;;;;11.65;9.00;;;;;;;;;;5000283;28;25077;-70
2024/01/06 01:43:25;;;;;;;15.05;8.95;;;;;;;;;;5001382;28;25073;-69
2024/01/06 01:45:52;;;;;;;12.85;9.27;;;;;;;;;;4999457;28;25077;-69
2024/01/06 01:48:19;;;;;;;13.45;9.30;;;;;;;;;;4998853;28;25069;-73
2024/01/06 01:50:46;;;;;;;13.30;7.45;;;;;;;;;;5004560;28;25059;-70
2024/01/06 01:53:13;;;;;;;9.07;7.85;;;;;;;;;;4997943;28;25138;-68
2024/01/06 01:55:40;;;;;;;8.75;6.40;;;;;;;;;;4991321;28;25175;-69
2024/01/06 01:58:06;;;;;;;9.77;6.97;;;;;;;;;;5003709;28;25055;-67
2024/01/06 02:00:32;;;;;;;8.00;6.30;;;;;;;;;;5007835;28;25092;-68
2024/01/06 02:03:00;;;;;;;8.77;6.00;;;;;;;;;;5003946;28;25153;-70
2024/01/06 02:05:26;;;;;;;10.70;6.03;;;;;;;;;;5001086;28;25073;-69
2024/01/06 02:07:52;;;;;;;7.60;6.28;;;;;;;;;;4994824;28;25094;-69
2024/01/06 02:10:18;;;;;;;7.20;6.28;;;;;;;;;;4993764;28;25106;-69
2024/01/06 02:12:44;;;;;;;8.35;6.82;;;;;;;;;;4993259;28;25074;-70
2024/01/06 02:15:10;;;;;;;7.15;6.13;;;;;;;;;;5009826;28;25056;-68
2024/01/06 02:17:36;;;;;;;8.00;5.70;;;;;;;;;;4999349;28;25149;-69
2024/01/06 02:20:02;;;;;;;8.52;4.95;;;;;;;;;;4994408;28;25061;-71
2024/01/06 02:22:28;;;;;;;6.38;5.40;;;;;;;;;;4991363;28;25055;-69
2024/01/06 02:24:54;;;;;;;8.32;6.45;;;;;;;;;;4992244;28;25050;-72
2024/01/06 02:27:20;;;;;;;7.93;6.40;;;;;;;;;;5032231;28;25100;-68
2024/01/06 02:29:46;;;;;;;11.35;7.88;;;;;;;;;;4999784;28;25067;-70
2024/01/06 02:32:12;;;;;;;11.02;7.95;;;;;;;;;;5007999;28;25069;-69
2024/01/06 02:34:38;;;;;;;12.20;8.27;;;;;;;;;;4998051;28;25075;-69
2024/01/06 02:37:04;;;;;;;11.95;8.90;;;;;;;;;;4997639;28;25120;-69
2024/01/06 02:39:30;;;;;;;12.35;9.05;;;;;;;;;;4993999;28;25072;-68
2024/01/06 02:41:56;;;;;;;12.80;9.38;;;;;;;;;;4998033;28;25096;-68
2024/01/06 02:44:22;;;;;;;9.18;8.02;;;;;;;;;;5003683;28;25063;-71
2024/01/06 02:46:48;;;;;;;14.80;8.77;;;;;;;;;;5000591;28;25070;-69
2024/01/06 02:49:14;;;;;;;9.23;7.68;;;;;;;;;;4998316;28;25063;-69
2024/01/06 02:51:40;;;;;;;13.65;9.15;;;;;;;;;;4994020;28;25153;-70
2024/01/06 02:54:06;;;;;;;13.57;9.75;;;;;;;;;;5008691;28;25106;-70
2024/01/06 02:56:32;;;;;;;14.13;10.20;;;;;;;;;;4998487;28;25079;-69
2024/01/06 02:58:58;;;;;;;16.30;10.10;;;;;;;;;;5002903;28;25105;-67
2024/01/06 03:01:24;;;;;;;12.20;9.55;;;;;;;;;;4997822;28;25060;-69
2024/01/06 03:03:50;;;;;;;12.00;9.82;;;;;;;;;;5003700;28;25121;-69
2024/01/06 03:06:16;;;;;;;13.02;9.93;;;;;;;;;;5009174;28;25070;-71
2024/01/06 03:08:41;;;;;;;12.30;9.55;;;;;;;;;;5013450;28;25072;-69
2024/01/06 03:11:07;;;;;;;15.20;10.60;;;;;;;;;;5017374;28;25062;-71
2024/01/06 03:13:33;;;;;;;14.38;10.20;;;;;;;;;;5015806;28;25063;-70
2024/01/06 03:16:02;;;;;;;12.55;10.07;;;;;;;;;;5013685;28;25077;-71
2024/01/06 03:18:28;;;;;;;11.13;8.40;;;;;;;;;;4998083;28;25065;-69
2024/01/06 03:20:55;;;;;;;9.95;8.52;;;;;;;;;;5001922;28;25138;-70
2024/01/06 03:23:21;;;;;;;11.80;9.43;;;;;;;;;;4994517;28;25086;-68
2024/01/06 03:25:47;;;;;;;11.77;10.07;;;;;;;;;;4997704;28;25069;-70
2024/01/06 03:28:13;;;;;;;19.95;10.80;;;;;;;;;;4993909;28;25052;-69
2024/01/06 03:30:39;;;;;;;25.27;11.80;;;;;;;;;;4994942;28;25046;-71
2024/01/06 03:33:06;;;;;;;18.08;12.23;;;;;;;;;;4987023;28;25075;-69
2024/01/06 03:35:32;;;;;;;15.18;11.15;;;;;;;;;;4992081;28;25130;-68
2024/01/06 03:37:58;;;;;;;13.50;10.07;;;;;;;;;;4992232;28;25083;-70
2024/01/06 03:40:24;;;;;;;11.70;9.40;;;;;;;;;;4989599;28;25081;-71
2024/01/06 03:42:50;;;;;;;12.57;8.18;;;;;;;;;;5000816;28;25132;-68
2024/01/06 03:45:16;;;;;;;10.73;8.38;;;;;;;;;;4991972;28;25103;-69
2024/01/06 03:47:42;;;;;;;16.40;10.20;;;;;;;;;;4991517;28;25064;-69
2024/01/06 03:50:08;;;;;;;14.48;10.10;;;;;;;;;;5004433;28;25062;-71
2024/01/06 03:52:34;;;;;;;12.95;9.63;;;;;;;;;;4994167;28;25082;-70
2024/01/06 03:55:00;;;;;;;16.48;11.45;;;;;;;;;;4990606;28;25065;-70
2024/01/06 03:57:26;;;;;;;15.27;11.65;;;;;;;;;;4989837;28;25093;-70
2024/01/06 03:59:52;;;;;;;19.52;13.80;;;;;;;;;;5001695;28;25072;-69
2024/01/06 04:02:18;;;;;;;20.08;13.35;;;;;;;;;;4991109;28;25160;-70
2024/01/06 04:04:44;;;;;;;16.33;14.07;;;;;;;;;;4997906;28;25169;-71
2024/01/06 04:07:10;;;;;;;20.30;12.50;;;;;;;;;;4997160;28;25147;-69
2024/01/06 04:09:36;;;;;;;23.27;14.98;;;;;;;;;;4993249;28;25098;-72
2024/01/06 04:12:02;;;;;;;19.25;15.45;;;;;;;;;;4997126;28;25072;-70
2024/01/06 04:14:28;;;;;;;23.38;14.75;;;;;;;;;;5000667;28;25069;-69
2024/01/06 04:16:56;;;;;;;16.30;13.63;;;;;;;;;;4999347;28;25097;-69
2024/01/06 04:19:22;;;;;;;19.40;14.30;;;;;;;;;;4997603;28;25097;-70
2024/01/06 04:21:48;;;;;;;25.45;16.15;;;;;;;;;;4987490;28;25064;-72
2024/01/06 04:24:14;;;;;;;27.42;18.38;;;;;;;;;;5001140;28;25077;-70
2024/01/06 04:26:40;;;;;;;26.45;16.30;;;;;;;;;;4999554;28;25079;-69
2024/01/06 04:29:08;;;;;;;22.20;16.52;;;;;;;;;;4997482;28;25144;-70
2024/01/06 04:31:34;;;;;;;20.50;15.65;;;;;;;;;;4998492;28;25053;-69
2024/01/06 04:34:00;;;;;;;22.45;16.52;;;;;;;;;;4995871;28;25061;-69
2024/01/06 04:36:26;;;;;;;22.13;15.52;;;;;;;;;;4995599;28;24899;-68
2024/01/06 04:38:51;;;;;;;26.30;15.05;;;;;;;;;;5000906;28;25122;-69
2024/01/06 04:41:17;;;;;;;20.13;15.70;;;;;;;;;;5003610;28;25057;-70
2024/01/06 04:43:43;;;;;;;19.83;14.98;;;;;;;;;;4993960;28;25078;-69
2024/01/06 04:46:09;;;;;;;19.92;15.00;;;;;;;;;;4996964;28;25092;-70
2024/01/06 04:48:35;;;;;;;16.30;13.90;;;;;;;;;;4998444;28;25081;-72
2024/01/06 04:51:03;;;;;;;13.15;11.32;;;;;;;;;;5001468;28;25061;-69
2024/01/06 04:53:30;;;;;;;16.25;11.10;;;;;;;;;;4999631;28;25081;-73
2024/01/06 04:55:56;;;;;;;10.98;9.70;;;;;;;;;;5002938;28;25089;-70
2024/01/06 04:58:22;;;;;;;10.52;8.95;;;;;;;;;;4994723;28;25120;-72
2024/01/06 05:00:50;;;;;;;11.68;7.35;;;;;;;;;;4997397;28;25145;-69
2024/01/06 05:03:16;;;;;;;8.32;7.15;;;;;;;;;;4996228;28;25059;-69
2024/01/06 05:05:42;;;;;;;12.82;8.45;;;;;;;;;;5011912;28;25075;-69
2024/01/06 05:08:08;;;;;;;13.35;8.38;;;;;;;;;;5002245;28;25071;-70
2024/01/06 05:10:34;;;;;;;11.93;8.35;;;;;;;;;;4995735;28;25068;-70
2024/01/06 05:13:00;;;;;;;11.02;8.60;;;;;;;;;;5001959;28;25070;-70
2024/01/06 05:15:26;;;;;;;12.90;8.15;;;;;;;;;;4998308;28;25066;-72
2024/01/06 05:17:52;;;;;;;11.80;7.43;;;;;;;;;;4995413;28;25076;-68
2024/01/06 05:20:18;;;;;;;11.65;8.48;;;;;;;;;;5006207;28;25079;-70
2024/01/06 05:22:44;;;;;;;11.48;8.35;;;;;;;;;;4999215;28;25079;-72
2024/01/06 05:25:10;;;;;;;10.63;7.63;;;;;;;;;;5001559;28;25084;-69
2024/01/06 05:27:36;;;;;;;9.65;8.20;;;;;;;;;;5003939;28;25063;-69
2024/01/06 05:30:02;;;;;;;10.77;8.05;;;;;;;;;;5006757;28;25089;-68
2024/01/06 05:32:28;;;;;;;11.98;7.85;;;;;;;;;;5003346;28;25062;-70
2024/01/06 05:34:54;;;;;;;15.63;8.68;;;;;;;;;;5031075;28;25090;-70
2024/01/06 05:37:20;;;;;;;12.80;9.75;;;;;;;;;;4994824;28;25058;-69
2024/01/06 05:39:46;;;;;;;13.00;10.77;;;;;;;;;;5004718;28;25063;-71
2024/01/06 05:42:14;;;;;;;16.60;8.82;;;;;;;;;;4988162;28;25075;-70
2024/01/06 05:44:41;;;;;;;14.02;9.40;;;;;;;;;;5008885;28;25050;-74
2024/01/06 05:47:08;;;;;;;13.98;9.27;;;;;;;;;;5006993;28;25093;-72
2024/01/06 05:49:34;;;;;;;13.70;9.60;;;;;;;;;;5010602;28;25154;-71
2024/01/06 05:52:00;;;;;;;14.75;10.48;;;;;;;;;;4995592;28;25075;-70
2024/01/06 05:54:26;;;;;;;16.75;9.90;;;;;;;;;;4994449;28;25163;-69
2024/01/06 05:56:53;;;;;;;14.48;10.65;;;;;;;;;;4996660;28;25067;-71
2024/01/06 05:59:19;;;;;;;13.23;11.18;;;;;;;;;;4991690;28;25063;-71
2024/01/06 06:01:45;;;;;;;13.90;9.70;;;;;;;;;;4999460;28;25173;-70
2024/01/06 06:04:12;;;;;;;17.42;9.95;;;;;;;;;;5001482;28;25059;-70
2024/01/06 06:06:37;;;;;;;19.25;11.68;;;;;;;;;;4996092;28;25105;-70
2024/01/06 06:09:06;;;;;;;15.13;9.68;;;;;;;;;;4994056;28;25080;-70
2024/01/06 06:11:32;;;;;;;17.40;10.38;;;;;;;;;;4997253;28;25066;-70
2024/01/06 06:13:58;;;;;;;17.85;11.35;;;;;;;;;;4989728;28;25069;-69
2024/01/06 06:16:24;;;;;;;15.43;10.65;;;;;;;;;;4993852;28;25101;-71
2024/01/06 06:18:50;;;;;;;19.65;12.00;;;;;;;;;;5030661;28;25066;-71
2024/01/06 06:21:16;;;;;;;13.93;10.60;;;;;;;;;;5000646;28;25053;-71
2024/01/06 06:23:42;;;;;;;15.98;10.07;;;;;;;;;;4996059;28;25449;-71
2024/01/06 06:26:09;;;;;;;13.75;9.65;;;;;;;;;;4997119;28;25107;-71
2024/01/06 06:28:35;;;;;;;18.65;10.68;;;;;;;;;;5002757;28;25094;-70
2024/01/06 06:31:04;;;;;;;18.98;11.15;;;;;;;;;;4994932;28;25068;-71
2024/01/06 06:33:30;;;;;;;15.70;10.48;;;;;;;;;;4995204;28;25075;-73
2024/01/06 06:35:56;;;;;;;16.27;11.05;;;;;;;;;;4998230;28;25074;-70
2024/01/06 06:38:22;;;;;;;15.10;10.90;;;;;;;;;;4996889;28;25072;-70
2024/01/06 06:40:48;;;;;;;15.63;10.70;;;;;;;;;;5000631;28;25081;-72
2024/01/06 06:43:14;;;;;;;16.27;9.80;;;;;;;;;;5000051;28;25069;-71
2024/01/06 06:45:40;;;;;;;17.20;9.35;;;;;;;;;;4995043;28;25105;-69
2024/01/06 06:48:06;;;;;;;14.32;8.75;;;;;;;;;;4994321;28;25075;-70
2024/01/06 06:50:33;;;;;;;12.18;9.15;;;;;;;;;;4991275;28;25067;-72
2024/01/06 06:53:00;;;;;;;23.70;9.23;;;;;;;;;;5030862;28;25096;-69
2024/01/06 06:55:27;;;;;;;14.80;9.73;;;;;;;;;;4987578;28;25085;-70
2024/01/06 06:57:53;;;;;;;12.38;8.95;;;;;;;;;;4998035;28;25105;-69
2024/01/06 07:00:19;;;;;;;11.98;9.10;;;;;;;;;;4995190;28;25052;-69
2024/01/06 07:02:45;;;;;;;12.63;9.50;;;;;;;;;;4984319;28;25084;-70
2024/01/06 07:05:11;;;;;;;10.63;9.52;;;;;;;;;;5004439;28;25067;-70
2024/01/06 07:07:37;;;;;;;13.30;8.95;;;;;;;;;;5000436;28;25074;-70
2024/01/06 07:10:05;;;;;;;11.73;9.82;;;;;;;;;;4997785;28;25153;-70
2024/01/06 07:12:31;;;;;;;12.85;10.48;;;;;;;;;;4994490;28;25074;-69
2024/01/06 07:14:58;;;;;;;12.48;10.10;;;;;;;;;;5000592;28;25073;-70
2024/01/06 07:17:24;;;;;;;15.10;10.07;;;;;;;;;;4999027;28;25056;-69
2024/01/06 07:19:50;;;;;;;16.83;10.90;;;;;;;;;;4994624;28;25127;-69
2024/01/06 07:22:18;;;;;;;14.63;10.80;;;;;;;;;;4995774;28;25071;-71
2024/01/06 07:24:44;;;;;;;16.83;12.60;;;;;;;;;;5000731;28;25073;-69
2024/01/06 07:27:10;;;;;;;19.83;12.38;;;;;;;;;;4995862;28;25091;-68
2024/01/06 07:29:36;;;;;;;21.98;12.68;;;;;;;;;;4996193;28;25137;-69
2024/01/06 07:32:02;;;;;;;19.55;11.52;;;;;;;;;;4996749;28;25099;-72
2024/01/06 07:34:28;;;;;;;16.67;11.32;;;;;;;;;;5002962;28;25101;-72
2024/01/06 07:36:54;;;;;;;16.15;12.88;;;;;;;;;;4995037;28;25050;-71
2024/01/06 07:39:19;;;;;;;19.90;12.95;;;;;;;;;;5001996;28;25161;-70
2024/01/06 07:41:46;;;;;;;17.15;11.80;;;;;;;;;;4999097;28;25138;-70
2024/01/06 07:44:12;;;;;;;15.68;12.50;;;;;;;;;;4999620;28;25061;-70
2024/01/06 07:46:40;;;;;;;16.73;12.60;;;;;;;;;;4999187;28;25051;-72
2024/01/06 07:49:06;;;;;;;17.17;12.40;;;;;;;;;;4996601;28;25067;-71
2024/01/06 07:51:34;;;;;;;20.25;12.45;;;;;;;;;;4996167;28;25055;-70
2024/01/06 07:54:00;;;;;;;17.92;12.05;;;;;;;;;;5030413;28;25053;-70
2024/01/06 07:56:26;;;;;;;17.20;13.35;;;;;;;;;;4985777;28;25107;-68
2024/01/06 07:58:52;;;;;;;17.20;12.77;;;;;;;;;;4999104;28;25080;-69
2024/01/06 08:01:18;;;;;;;19.40;12.63;;;;;;;;;;4989418;28;25111;-71
2024/01/06 08:03:44;;;;;;;20.40;13.30;;;;;;;;;;4983218;28;25089;-72
2024/01/06 08:06:10;;;;;;;22.58;12.27;;;;;;;;;;4996169;28;25060;-70
2024/01/06 08:08:36;;;;;;;15.25;11.52;;;;;;;;;;4990130;28;25159;-71
2024/01/06 08:11:02;;;;;;;17.23;13.93;;;;;;;;;;5021100;28;25073;-73
2024/01/06 08:13:28;;;;;;;18.55;13.00;;;;;;;;;;4989668;28;25150;-71
2024/01/06 08:15:54;;;;;;;17.02;12.40;;;;;;;;;;4984915;28;25089;-69
2024/01/06 08:18:21;;;;;;;16.98;12.98;;;;;;;;;;4983900;28;25057;-70
2024/01/06 08:20:47;;;;;;;22.10;11.95;;;;;;;;;;4984879;28;25075;-73
2024/01/06 08:23:14;;;;;;;17.70;11.15;;;;;;;;;;4996055;28;25056;-70
2024/01/06 08:25:40;;;;;;;15.48;11.77;;;;;;;;;;4986789;28;25091;-73
2024/01/06 08:28:06;;;;;;;18.58;11.93;;;;;;;;;;4987746;28;25091;-69
2024/01/06 08:30:32;;;;;;;16.98;11.07;;;;;;;;;;4983120;28;25069;-71
2024/01/06 08:32:59;;;;;;;16.33;11.85;;;;;;;;;;4986441;28;25074;-71
2024/01/06 08:35:25;;;;;;;12.48;11.05;;;;;;;;;;4987582;28;25081;-71
2024/01/06 08:37:51;;;;;;;18.08;12.23;;;;;;;;;;4989542;28;25078;-70
2024/01/06 08:40:17;;;;;;;16.42;10.85;;;;;;;;;;4980394;28;25078;-70
2024/01/06 08:42:44;;;;;;;15.70;11.07;;;;;;;;;;4983903;28;25072;-69
2024/01/06 08:45:09;;;;;;;19.50;10.38;;;;;;;;;;4987299;28;25058;-71
2024/01/06 08:47:35;;;;;;;18.45;11.60;;;;;;;;;;4989270;28;25133;-70
2024/01/06 08:50:01;;;;;;;12.30;10.98;;;;;;;;;;4982508;28;25147;-70
2024/01/06 08:52:27;;;;;;;15.57;10.50;;;;;;;;;;4990087;28;25062;-69
2024/01/06 08:54:53;;;;;;;13.82;10.20;;;;;;;;;;4988954;28;25045;-71
2024/01/06 08:57:19;;;;;;;10.77;8.68;;;;;;;;;;4991451;28;25052;-71
2024/01/06 08:59:45;;;;;;;12.00;9.23;;;;;;;;;;4990425;28;25065;-70
2024/01/06 09:02:12;;;;;;;15.20;8.85;;;;;;;;;;4987773;28;25077;-70
2024/01/06 09:04:38;;;;;;;15.40;9.73;;;;;;;;;;4984104;28;25078;-70
2024/01/06 09:07:05;;;;;;;11.45;8.95;;;;;;;;;;4988812;28;25157;-69
2024/01/06 09:09:31;;;;;;;14.32;9.55;;;;;;;;;;4984924;28;25137;-73
2024/01/06 09:11:57;;;;;;;12.30;9.40;;;;;;;;;;4989743;28;25140;-70
2024/01/06 09:14:23;;;;;;;15.95;8.77;;;;;;;;;;4983245;28;25098;-71
2024/01/06 09:16:49;;;;;;;12.13;9.15;;;;;;;;;;4990171;28;25140;-70
2024/01/06 09:19:15;;;;;;;10.38;8.32;;;;;;;;;;4984302;28;25069;-70
2024/01/06 09:21:41;;;;;;;11.40;8.70;;;;;;;;;;4999825;28;25075;-71
2024/01/06 09:24:07;;;;;;;12.60;8.43;;;;;;;;;;4987700;28;25073;-68
2024/01/06 09:26:36;;;;;;;10.57;8.48;;;;;;;;;;4994067;28;25091;-70
2024/01/06 09:29:02;;;;;;;12.43;8.65;;;;;;;;;;4996927;28;25154;-70
2024/01/06 09:31:28;;;;;;;13.55;7.97;;;;;;;;;;4991739;28;25059;-70
2024/01/06 09:33:54;;;;;;;15.25;8.63;;;;;;;;;;4991008;28;25130;-72
2024/01/06 09:36:20;;;;;;;8.88;7.55;;;;;;;;;;4993865;28;25049;-73
2024/01/06 09:38:46;;;;;;;11.82;7.38;;;;;;;;;;4990299;28;25075;-71
2024/01/06 09:41:12;;;;;;;8.73;7.03;;;;;;;;;;4982220;28;25073;-70
2024/01/06 09:43:38;;;;;;;11.82;7.22;;;;;;;;;;4984193;28;25096;-68
2024/01/06 09:46:16;;;;;;;10.48;7.40;;;;;;;;;;4988607;28;25177;-70
2024/01/06 09:48:42;;;;;;;12.10;7.50;;;;;;;;;;4988443;28;25076;-70
2024/01/06 09:51:10;;;;;;;10.55;7.28;;;;;;;;;;4980870;28;25070;-70
2024/01/06 09:53:36;;;;;;;13.63;7.45;;;;;;;;;;4980893;28;25058;-69
2024/01/06 09:56:03;;;;;;;11.60;8.15;;;;;;;;;;4986806;28;25065;-71
2024/01/06 09:58:32;;;;;;;13.30;7.35;;;;;;;;;;4987602;28;25112;-72
2024/01/06 10:00:59;;;;;;;12.90;7.82;;;;;;;;;;4992643;28;25046;-70
2024/01/06 10:03:26;;;;;;;15.82;7.72;;;;;;;;;;4987316;28;25049;-70
2024/01/06 10:05:52;;;;;;;14.05;7.70;;;;;;;;;;4985448;28;25045;-71
2024/01/06 10:08:19;;;;;;;14.75;8.18;;;;;;;;;;4992109;28;25063;-70
2024/01/06 10:10:45;;;;;;;17.70;9.63;;;;;;;;;;4984704;28;25065;-71
2024/01/06 10:13:11;;;;;;;13.02;8.02;;;;;;;;;;4985191;28;25147;-70
2024/01/06 10:15:37;;;;;;;17.38;8.93;;;;;;;;;;4990803;28;24953;-71
2024/01/06 10:18:03;;;;;;;12.60;8.73;;;;;;;;;;4990274;28;25149;-71
2024/01/06 10:20:29;;;;;;;14.02;8.30;;;;;;;;;;4986296;28;25082;-71
2024/01/06 10:22:55;;;;;;;11.80;8.15;;;;;;;;;;4997305;28;25078;-72
2024/01/06 10:25:24;;;;;;;12.77;9.02;;;;;;;;;;4982984;28;25138;-70
2024/01/06 10:27:54;;;;;;;8.52;6.90;;;;;;;;;;5000444;28;25054;-70
2024/01/06 10:30:19;;;;;;;12.32;6.75;;;;;;;;;;4982123;28;25097;-70
2024/01/06 10:32:45;;;;;;;12.10;8.10;;;;;;;;;;4988160;28;25124;-70
2024/01/06 10:35:11;;;;;;;15.30;7.40;;;;;;;;;;4995212;28;25072;-71
2024/01/06 10:37:38;;;;;;;9.70;7.07;;;;;;;;;;4996041;28;25071;-69
2024/01/06 10:40:07;;;;;;;6.80;5.28;;;;;;;;;;4983726;28;25126;-73
2024/01/06 10:42:34;;;;;;;9.30;6.32;;;;;;;;;;4989160;28;25088;-71
2024/01/06 10:45:01;;;;;;;9.68;6.07;;;;;;;;;;4985947;28;25121;-71
2024/01/06 10:47:30;;;;;;;10.90;6.47;;;;;;;;;;4986490;28;25110;-70
2024/01/06 10:49:58;;;;;;;8.32;6.55;;;;;;;;;;4985457;28;25072;-71
2024/01/06 10:52:24;;;;;;;7.85;5.90;;;;;;;;;;4988631;28;25043;-70
2024/01/06 10:54:50;;;;;;;8.93;5.88;;;;;;;;;;4988599;28;25069;-70
2024/01/06 10:57:18;;;;;;;11.07;5.38;;;;;;;;;;4989745;28;25066;-70
2024/01/06 10:59:44;;;;;;;6.10;4.63;;;;;;;;;;4988013;28;25051;-69
2024/01/06 11:02:12;;;;;;;5.95;4.43;;;;;;;;;;4990361;28;25117;-71
2024/01/06 11:04:38;;;;;;;11.70;5.57;;;;;;;;;;4990677;28;25110;-71
2024/01/06 11:07:04;;;;;;;10.38;5.30;;;;;;;;;;4990650;28;25077;-70
2024/01/06 11:09:33;;;;;;;11.20;5.40;;;;;;;;;;4982857;28;25125;-70
2024/01/06 11:12:00;;;;;;;10.43;5.70;;;;;;;;;;4994727;28;25056;-73
2024/01/06 11:14:31;;;;;;;6.72;5.55;;;;;;;;;;4994353;28;25079;-72
2024/01/06 11:16:57;;;;;;;10.27;5.38;;;;;;;;;;4988805;28;25079;-71
2024/01/06 11:19:43;;;;;;;8.65;6.32;;;;;;;;;;4989735;28;25129;-71
2024/01/06 11:22:21;;;;;;;8.70;5.65;;;;;;;;;;4989456;28;25045;-71
2024/01/06 11:24:49;;;;;;;13.75;6.47;;;;;;;;;;4984426;28;25156;-72
2024/01/06 11:27:19;;;;;;;6.55;4.80;;;;;;;;;;4985399;28;25070;-73
2024/01/06 11:29:45;;;;;;;6.80;3.38;;;;;;;;;;4988800;28;25081;-71
2024/01/06 11:32:21;;;;;;;6.55;3.78;;;;;;;;;;4981471;28;25115;-72
2024/01/06 11:34:50;;;;;;;6.65;4.93;;;;;;;;;;4987054;28;25051;-73
2024/01/06 11:37:18;;;;;;;7.00;5.13;;;;;;;;;;4985151;28;25149;-75
2024/01/06 11:39:45;;;;;;;6.65;5.10;;;;;;;;;;4989967;28;25131;-71
2024/01/06 11:42:11;;;;;;;6.72;5.20;;;;;;;;;;4993478;28;25078;-70
2024/01/06 11:44:38;;;;;;;9.77;5.97;;;;;;;;;;4986192;28;25090;-71
2024/01/06 11:47:04;;;;;;;6.50;4.95;;;;;;;;;;5021676;28;25068;-70
2024/01/06 11:49:30;;;;;;;7.90;5.80;;;;;;;;;;4997624;28;25112;-71
2024/01/06 11:51:57;;;;;;;8.93;6.13;;;;;;;;;;4986140;28;25138;-70
2024/01/06 11:54:23;;;;;;;7.57;5.85;;;;;;;;;;4990435;28;25053;-72
2024/01/06 11:56:49;;;;;;;9.25;5.75;;;;;;;;;;4984893;28;25078;-73
2024/01/06 11:59:15;;;;;;;9.48;5.90;;;;;;;;;;4988992;28;25045;-70
2024/01/06 12:01:42;;;;;;;7.95;5.82;;;;;;;;;;4991919;28;25066;-72
2024/01/06 12:04:08;;;;;;;6.50;5.38;;;;;;;;;;4989558;28;25048;-71
2024/01/06 12:06:34;;;;;;;9.85;6.40;;;;;;;;;;4992346;28;25051;-71
2024/01/06 12:09:04;;;;;;;8.57;6.28;;;;;;;;;;4983391;28;25068;-70
2024/01/06 12:11:30;;;;;;;6.57;5.18;;;;;;;;;;4992774;28;25073;-73
2024/01/06 12:13:56;;;;;;;9.98;5.70;;;;;;;;;;4986335;28;25066;-72
2024/01/06 12:16:26;;;;;;;10.45;5.68;;;;;;;;;;4990199;28;25082;-72
2024/01/06 12:18:55;;;;;;;9.95;5.82;;;;;;;;;;5020877;28;25064;-71
2024/01/06 12:21:21;;;;;;;8.57;6.00;;;;;;;;;;4991994;28;25115;-72
2024/01/06 12:23:47;;;;;;;7.05;6.00;;;;;;;;;;4989560;28;25082;-73
2024/01/06 12:26:13;;;;;;;7.00;5.38;;;;;;;;;;4989762;28;25095;-71
2024/01/06 12:28:39;;;;;;;8.85;5.72;;;;;;;;;;4991812;28;25144;-71
2024/01/06 12:31:05;;;;;;;6.72;5.82;;;;;;;;;;4987694;28;25108;-72
2024/01/06 12:33:32;;;;;;;9.48;6.10;;;;;;;;;;4992478;28;25071;-73
2024/01/06 12:35:58;;;;;;;10.25;5.55;;;;;;;;;;4990726;28;25075;-73
2024/01/06 12:38:27;;;;;;;10.90;6.80;;;;;;;;;;4984446;28;25068;-73
2024/01/06 12:40:54;;;;;;;11.85;6.88;;;;;;;;;;5022321;28;25106;-70
2024/01/06 12:43:20;;;;;;;11.38;6.13;;;;;;;;;;4986009;28;25073;-72
2024/01/06 12:45:46;;;;;;;6.97;5.43;;;;;;;;;;4983300;28;25061;-72
2024/01/06 12:48:12;;;;;;;7.53;5.88;;;;;;;;;;4984290;28;25072;-72
2024/01/06 12:50:38;;;;;;;10.40;6.18;;;;;;;;;;4990299;28;25050;-70
2024/01/06 12:53:04;;;;;;;7.90;6.13;;;;;;;;;;4994230;28;25078;-72
2024/01/06 12:55:30;;;;;;;8.88;5.55;;;;;;;;;;5003081;28;25083;-70
2024/01/06 12:57:56;;;;;;;8.73;5.50;;;;;;;;;;4993069;28;25084;-70
2024/01/06 13:00:22;;;;;;;10.30;6.30;;;;;;;;;;4987016;28;25078;-72
2024/01/06 13:02:48;;;;;;;13.70;6.75;;;;;;;;;;4986097;28;25082;-70
2024/01/06 13:05:14;;;;;;;17.90;7.35;;;;;;;;;;4983700;28;25065;-70
2024/01/06 13:07:40;;;;;;;12.23;7.63;;;;;;;;;;5020457;28;25076;-71
2024/01/06 13:10:06;;;;;;;12.02;7.95;;;;;;;;;;4981795;28;25095;-70
2024/01/06 13:12:32;;;;;;;9.35;7.35;;;;;;;;;;4988838;28;25124;-72
2024/01/06 13:14:59;;;;;;;9.95;7.63;;;;;;;;;;4994060;28;25055;-71
2024/01/06 13:17:25;;;;;;;12.45;8.60;;;;;;;;;;4986114;28;25068;-70
2024/01/06 13:19:51;;;;;;;11.70;7.18;;;;;;;;;;5003552;28;25145;-72
2024/01/06 13:22:20;;;;;;;10.52;6.63;;;;;;;;;;4997931;28;25157;-71
2024/01/06 13:24:46;;;;;;;11.45;7.50;;;;;;;;;;4992354;28;25082;-71
2024/01/06 13:27:12;;;;;;;12.48;7.57;;;;;;;;;;4995498;28;25115;-71
2024/01/06 13:29:38;;;;;;;14.15;7.47;;;;;;;;;;4988830;28;25134;-71
2024/01/06 13:32:05;;;;;;;10.00;7.43;;;;;;;;;;4987439;28;25119;-70
2024/01/06 13:34:31;;;;;;;9.85;7.35;;;;;;;;;;4995773;28;25108;-71
2024/01/06 13:36:57;;;;;;;7.40;5.93;;;;;;;;;;4992117;28;25152;-72
2024/01/06 13:39:23;;;;;;;7.18;5.40;;;;;;;;;;4991425;28;25086;-71
2024/01/06 13:41:50;;;;;;;9.73;6.40;;;;;;;;;;4993479;28;25100;-72
2024/01/06 13:44:16;;;;;;;7.78;5.63;;;;;;;;;;4987762;28;25081;-72
2024/01/06 13:46:45;;;;;;;12.43;7.05;;;;;;;;;;4992822;28;25065;-70
2024/01/06 13:49:12;;;;;;;6.60;5.90;;;;;;;;;;4994242;28;25061;-70
2024/01/06 13:51:38;;;;;;;10.18;6.63;;;;;;;;;;4993260;28;25090;-71
2024/01/06 13:54:04;;;;;;;12.40;7.63;;;;;;;;;;4983088;28;25075;-71
2024/01/06 13:56:30;;;;;;;11.55;5.75;;;;;;;;;;4985077;28;25082;-71
2024/01/06 13:58:57;;;;;;;9.43;5.60;;;;;;;;;;4984703;28;25054;-73
2024/01/06 14:01:23;;;;;;;9.55;5.40;;;;;;;;;;4986406;28;25117;-71
2024/01/06 14:03:50;;;;;;;6.90;5.03;;;;;;;;;;4987092;28;25061;-72
2024/01/06 14:06:17;;;;;;;8.32;4.43;;;;;;;;;;4987195;28;25079;-71
2024/01/06 14:08:43;;;;;;;6.95;4.57;;;;;;;;;;4991425;28;25096;-70
2024/01/06 14:11:09;;;;;;;6.43;4.28;;;;;;;;;;4992113;28;25137;-70
2024/01/06 14:13:35;;;;;;;9.20;4.78;;;;;;;;;;4990262;28;25128;-71
2024/01/06 14:16:01;;;;;;;5.57;4.70;;;;;;;;;;5021804;28;25106;-72
2024/01/06 14:18:27;;;;;;;6.60;4.68;;;;;;;;;;4991323;28;25130;-70
2024/01/06 14:20:55;;;;;;;7.93;5.32;;;;;;;;;;4986906;28;25517;-71
2024/01/06 14:23:21;;;;;;;6.05;5.32;;;;;;;;;;4994235;28;25116;-70